Time;durP1;ratioP1;P1;durP2;ratioP2;P2;SDS_P1;SDS_P2;PMS_P1;PMS_P2;Temp;Humidity;BMP_temperature;BMP_pressure;BME280_temperature;BME280_humidity;BME280_pressure;Samples;Min_cycle;Max_cycle;Signal;HPM_P1;HPM_P2
2022/12/02 00:01:16;;;;;;;38.90;18.30;;;4.10;99.90;;;;;;5036148;28;20222;-42
2022/12/02 00:03:42;;;;;;;37.97;19.33;;;4.10;99.90;;;;;;5018134;28;20626;-43
2022/12/02 00:06:35;;;;;;;46.20;20.77;;;4.10;99.90;;;;;;5035935;28;20197;-43
2022/12/02 00:09:19;;;;;;;38.00;19.60;;;4.10;99.90;;;;;;5032230;28;20235;-43
2022/12/02 00:11:45;;;;;;;43.43;19.63;;;4.00;99.90;;;;;;5036430;28;20200;-41
2022/12/02 00:14:21;;;;;;;36.90;18.87;;;4.00;99.90;;;;;;5035732;28;20661;-43
2022/12/02 00:16:47;;;;;;;40.03;20.43;;;4.00;99.90;;;;;;5036016;28;20241;-43
2022/12/02 00:19:13;;;;;;;39.97;19.87;;;4.00;99.90;;;;;;5035548;28;20206;-44
2022/12/02 00:21:38;;;;;;;44.90;21.20;;;4.00;99.90;;;;;;5017847;28;20182;-43
2022/12/02 00:24:04;;;;;;;38.10;19.33;;;4.00;99.90;;;;;;5017914;28;20189;-44
2022/12/02 00:26:30;;;;;;;39.60;19.53;;;4.00;99.90;;;;;;5036012;28;20181;-43
2022/12/02 00:28:55;;;;;;;45.13;20.47;;;4.00;99.90;;;;;;5035507;28;20197;-43
2022/12/02 00:31:21;;;;;;;40.40;19.50;;;4.00;99.90;;;;;;5035678;28;20179;-44
2022/12/02 00:33:46;;;;;;;37.03;19.80;;;4.00;99.90;;;;;;5035477;28;20185;-44
2022/12/02 00:36:12;;;;;;;45.73;21.13;;;4.00;99.90;;;;;;5035942;28;20177;-43
2022/12/02 00:38:37;;;;;;;45.00;21.30;;;4.00;99.90;;;;;;5035248;28;20621;-46
2022/12/02 00:41:03;;;;;;;40.27;20.30;;;3.90;99.90;;;;;;5035179;28;20181;-42
2022/12/02 00:46:31;;;;;;;40.90;19.70;;;3.90;99.90;;;;;;5035834;28;20207;-42
2022/12/02 00:48:57;;;;;;;38.83;18.10;;;3.90;99.90;;;;;;5034892;28;20206;-43
2022/12/02 00:51:23;;;;;;;40.07;19.47;;;3.90;99.90;;;;;;5035224;28;20596;-43
2022/12/02 00:53:48;;;;;;;42.30;19.27;;;3.90;99.90;;;;;;5035355;28;20178;-44
2022/12/02 00:56:14;;;;;;;43.23;19.63;;;3.90;99.90;;;;;;5035929;28;20208;-42
2022/12/02 00:58:40;;;;;;;44.17;19.57;;;3.90;99.90;;;;;;5035238;28;20208;-43
2022/12/02 01:01:05;;;;;;;42.17;19.40;;;3.90;99.90;;;;;;5034954;28;20300;-44
2022/12/02 01:03:31;;;;;;;40.37;19.43;;;3.90;99.90;;;;;;5034748;28;20224;-42
2022/12/02 01:05:56;;;;;;;42.60;18.50;;;3.90;99.90;;;;;;5034788;28;20177;-44
2022/12/02 01:08:26;;;;;;;40.30;19.17;;;3.90;99.90;;;;;;5034712;28;20193;-43
2022/12/02 01:10:52;;;;;;;44.33;20.23;;;3.90;99.90;;;;;;5034902;28;20189;-44
2022/12/02 01:13:17;;;;;;;39.30;19.37;;;3.90;99.90;;;;;;5034608;28;20184;-44
2022/12/02 01:15:43;;;;;;;46.30;22.03;;;3.90;99.90;;;;;;5016092;28;20188;-44
2022/12/02 01:18:08;;;;;;;46.23;21.53;;;3.90;99.90;;;;;;5016606;28;20686;-43
2022/12/02 01:20:34;;;;;;;44.20;21.30;;;3.90;99.90;;;;;;5034476;28;20209;-42
2022/12/02 01:22:59;;;;;;;44.83;21.47;;;3.90;99.90;;;;;;5034518;28;20186;-43
2022/12/02 01:25:25;;;;;;;49.33;22.43;;;3.90;99.90;;;;;;5034327;28;20273;-42
2022/12/02 01:27:51;;;;;;;46.97;22.70;;;3.90;99.90;;;;;;5034275;28;20170;-44
2022/12/02 01:30:16;;;;;;;45.53;22.07;;;3.80;99.90;;;;;;5034132;28;20190;-44
2022/12/02 01:32:42;;;;;;;46.23;22.20;;;3.80;99.90;;;;;;5034213;28;20700;-44
2022/12/02 01:35:08;;;;;;;46.73;21.87;;;3.80;99.90;;;;;;5034650;28;20189;-44
2022/12/02 01:37:33;;;;;;;52.30;24.80;;;3.80;99.90;;;;;;5034128;28;20184;-45
2022/12/02 01:39:59;;;;;;;46.20;22.97;;;3.80;99.90;;;;;;5034188;28;20205;-49
2022/12/02 01:42:25;;;;;;;55.10;23.97;;;3.80;99.90;;;;;;5034228;28;20182;-50
2022/12/02 01:44:51;;;;;;;48.70;22.87;;;3.70;99.90;;;;;;5034000;28;20192;-48
2022/12/02 01:47:16;;;;;;;52.23;22.93;;;3.70;99.90;;;;;;5033927;28;20231;-49
2022/12/02 01:49:42;;;;;;;45.83;21.80;;;3.70;99.90;;;;;;5033920;28;20212;-50
2022/12/02 01:52:08;;;;;;;45.63;22.63;;;3.70;99.90;;;;;;5033841;28;20631;-50
2022/12/02 01:54:34;;;;;;;51.47;22.77;;;3.60;99.90;;;;;;5033881;28;20182;-49
2022/12/02 01:57:00;;;;;;;52.63;23.57;;;3.60;99.90;;;;;;5034316;28;20320;-48
2022/12/02 01:59:26;;;;;;;54.40;22.73;;;3.60;99.90;;;;;;5033831;28;20568;-49
2022/12/02 02:01:51;;;;;;;54.73;25.57;;;3.60;99.90;;;;;;5000090;28;20188;-49
2022/12/02 02:04:17;;;;;;;51.17;24.20;;;3.60;99.90;;;;;;5016164;28;20202;-49
2022/12/02 02:06:45;;;;;;;54.80;24.47;;;3.60;99.90;;;;;;5033863;28;20227;-50
2022/12/02 02:09:12;;;;;;;49.20;23.33;;;3.60;99.90;;;;;;5015878;28;20681;-50
2022/12/02 02:11:39;;;;;;;52.10;23.43;;;3.60;99.90;;;;;;5033500;28;20188;-49
2022/12/02 02:14:07;;;;;;;49.20;22.63;;;3.60;99.90;;;;;;5033444;28;20668;-50
2022/12/02 02:16:33;;;;;;;50.17;23.87;;;3.60;99.90;;;;;;5033856;28;20260;-49
2022/12/02 02:19:01;;;;;;;48.03;23.00;;;3.60;99.90;;;;;;5033493;28;20202;-49
2022/12/02 02:21:35;;;;;;;50.07;23.20;;;3.60;99.90;;;;;;5033323;28;20176;-48
2022/12/02 02:24:00;;;;;;;52.00;24.40;;;3.50;99.90;;;;;;5033491;28;20165;-48
2022/12/02 02:26:27;;;;;;;51.87;25.20;;;3.50;99.90;;;;;;5033460;28;20544;-50
2022/12/02 02:28:52;;;;;;;51.33;22.97;;;3.50;99.90;;;;;;5033524;28;20307;-49
2022/12/02 02:31:18;;;;;;;52.87;24.23;;;3.50;99.90;;;;;;5016435;28;20218;-49
2022/12/02 02:33:45;;;;;;;46.50;22.50;;;3.50;99.90;;;;;;5033295;28;20398;-50
2022/12/02 02:36:10;;;;;;;59.70;25.13;;;3.50;99.90;;;;;;5033549;28;20509;-50
2022/12/02 02:38:37;;;;;;;54.90;24.23;;;3.50;99.90;;;;;;5033132;28;20227;-49
2022/12/02 02:41:03;;;;;;;54.83;24.53;;;3.50;99.90;;;;;;5033495;28;20192;-49
2022/12/02 02:43:29;;;;;;;59.00;24.13;;;3.50;99.90;;;;;;5033294;28;20642;-49
2022/12/02 02:45:56;;;;;;;52.93;25.27;;;3.50;99.90;;;;;;5033240;28;20644;-49
2022/12/02 02:48:23;;;;;;;51.27;25.50;;;3.50;99.90;;;;;;5033275;28;20239;-49
2022/12/02 02:50:49;;;;;;;51.60;24.83;;;3.50;99.90;;;;;;5033353;28;20196;-49
2022/12/02 02:53:17;;;;;;;54.43;24.33;;;3.50;99.90;;;;;;5033407;28;20198;-50
2022/12/02 02:55:43;;;;;;;50.30;23.47;;;3.50;99.90;;;;;;5015564;28;20185;-49
2022/12/02 02:58:11;;;;;;;52.03;24.33;;;3.50;99.90;;;;;;5033217;28;20217;-48
2022/12/02 03:00:38;;;;;;;51.87;23.90;;;3.40;99.90;;;;;;5033007;28;20200;-48
2022/12/02 03:03:04;;;;;;;56.03;24.63;;;3.40;99.90;;;;;;5032969;28;20208;-50
2022/12/02 03:05:30;;;;;;;54.30;24.60;;;3.40;99.90;;;;;;5033586;28;20177;-49
2022/12/02 03:07:55;;;;;;;53.23;23.97;;;3.40;99.90;;;;;;5033138;28;20592;-51
2022/12/02 03:10:21;;;;;;;49.63;22.60;;;3.40;99.90;;;;;;5032911;28;20621;-49
2022/12/02 03:12:52;;;;;;;55.67;25.40;;;3.40;99.90;;;;;;5032925;28;20190;-49
2022/12/02 03:15:19;;;;;;;52.27;23.80;;;3.40;99.90;;;;;;5033330;28;20220;-49
2022/12/02 03:17:45;;;;;;;51.40;24.47;;;3.40;99.90;;;;;;5033161;28;20196;-49
2022/12/02 03:20:11;;;;;;;55.97;26.23;;;3.40;99.90;;;;;;5032714;28;20209;-49
2022/12/02 03:22:37;;;;;;;57.77;25.33;;;3.40;99.90;;;;;;5015213;28;20185;-48
2022/12/02 03:25:03;;;;;;;53.50;24.90;;;3.40;99.90;;;;;;5033032;28;20202;-50
2022/12/02 03:27:29;;;;;;;53.17;25.13;;;3.40;99.90;;;;;;5015144;28;20188;-50
2022/12/02 03:29:55;;;;;;;53.60;24.53;;;3.40;99.90;;;;;;5032853;28;20198;-49
2022/12/02 03:32:21;;;;;;;49.17;23.47;;;3.40;99.90;;;;;;5032964;28;20185;-50
2022/12/02 03:34:46;;;;;;;55.57;25.17;;;3.40;99.90;;;;;;5032900;28;20633;-49
2022/12/02 03:37:12;;;;;;;52.73;25.07;;;3.40;99.90;;;;;;5032657;28;20699;-48
2022/12/02 03:39:38;;;;;;;52.73;24.00;;;3.40;99.90;;;;;;5015878;28;20216;-48
2022/12/02 03:42:04;;;;;;;53.77;24.47;;;3.40;99.90;;;;;;5018643;28;20185;-51
2022/12/02 03:44:30;;;;;;;51.37;23.60;;;3.40;99.90;;;;;;5036219;28;20173;-49
2022/12/02 03:46:56;;;;;;;55.83;23.97;;;3.40;99.90;;;;;;5036111;28;20262;-50
2022/12/02 03:49:22;;;;;;;50.30;24.60;;;3.40;99.90;;;;;;5036081;28;20205;-50
2022/12/02 03:51:48;;;;;;;50.83;24.20;;;3.40;99.90;;;;;;5036342;28;20185;-49
2022/12/02 03:54:14;;;;;;;48.53;24.83;;;3.40;99.90;;;;;;5036152;28;20577;-49
2022/12/02 03:56:41;;;;;;;46.93;22.87;;;3.40;99.90;;;;;;5035972;28;20180;-50
2022/12/02 03:59:08;;;;;;;47.07;21.73;;;3.40;99.90;;;;;;5036265;28;20219;-49
2022/12/02 04:01:34;;;;;;;49.77;23.90;;;3.40;99.90;;;;;;5018314;28;20283;-49
2022/12/02 04:04:00;;;;;;;47.70;21.40;;;3.40;99.90;;;;;;5036299;28;20659;-49
2022/12/02 04:06:25;;;;;;;52.43;26.57;;;3.40;99.90;;;;;;5036024;28;20184;-50
2022/12/02 04:08:51;;;;;;;53.20;25.33;;;3.30;99.90;;;;;;5035766;28;20200;-47
2022/12/02 04:11:17;;;;;;;56.73;27.53;;;3.40;99.90;;;;;;5035798;28;20196;-49
2022/12/02 04:13:42;;;;;;;62.03;28.00;;;3.40;99.90;;;;;;5035644;28;20668;-48
2022/12/02 04:16:08;;;;;;;64.83;28.43;;;3.40;99.90;;;;;;5035739;28;20181;-50
2022/12/02 04:18:33;;;;;;;53.97;26.03;;;3.40;99.90;;;;;;5035900;28;20228;-48
2022/12/02 04:20:59;;;;;;;55.87;24.83;;;3.40;99.90;;;;;;5035426;28;20209;-49
2022/12/02 04:23:24;;;;;;;54.77;26.10;;;3.30;99.90;;;;;;5035549;28;20224;-49
2022/12/02 04:25:50;;;;;;;54.03;24.17;;;3.30;99.90;;;;;;5035527;28;20181;-50
2022/12/02 04:28:15;;;;;;;42.07;20.33;;;3.30;99.90;;;;;;5035449;28;20271;-49
2022/12/02 04:30:41;;;;;;;41.77;19.90;;;3.30;99.90;;;;;;5035689;28;20185;-49
2022/12/02 04:33:07;;;;;;;45.70;22.70;;;3.30;99.90;;;;;;5035621;28;20208;-50
2022/12/02 04:35:32;;;;;;;53.07;25.27;;;3.30;99.90;;;;;;5017843;28;20645;-49
2022/12/02 04:37:58;;;;;;;50.73;23.67;;;3.30;99.90;;;;;;5035743;28;20185;-50
2022/12/02 04:40:23;;;;;;;53.57;25.20;;;3.40;99.90;;;;;;5018151;28;20205;-49
2022/12/02 04:42:49;;;;;;;50.93;23.17;;;3.40;99.90;;;;;;5036059;28;20536;-49
2022/12/02 04:45:15;;;;;;;47.47;23.87;;;3.30;99.90;;;;;;5037680;28;20535;-49
2022/12/02 04:47:40;;;;;;;50.70;22.73;;;3.30;99.90;;;;;;5035197;28;20177;-50
2022/12/02 04:50:07;;;;;;;52.87;25.60;;;3.30;99.90;;;;;;5035080;28;20204;-50
2022/12/02 04:52:33;;;;;;;48.90;24.33;;;3.30;99.90;;;;;;5034986;28;20238;-50
2022/12/02 04:54:59;;;;;;;49.63;24.90;;;3.30;99.90;;;;;;5035244;28;20186;-49
2022/12/02 04:57:25;;;;;;;52.77;24.90;;;3.30;99.90;;;;;;5035692;28;20655;-49
2022/12/02 04:59:50;;;;;;;49.83;25.57;;;3.30;99.90;;;;;;5034868;28;20220;-49
2022/12/02 05:02:16;;;;;;;52.40;27.20;;;3.20;99.90;;;;;;5034855;28;20211;-50
2022/12/02 05:04:41;;;;;;;53.70;25.13;;;3.30;99.90;;;;;;5035155;28;20670;-50
2022/12/02 05:07:07;;;;;;;50.03;24.67;;;3.20;99.90;;;;;;5035036;28;20173;-47
2022/12/02 05:09:32;;;;;;;51.57;24.83;;;3.30;99.90;;;;;;5034631;28;20200;-49
2022/12/02 05:11:59;;;;;;;52.60;23.73;;;3.20;99.90;;;;;;5017468;28;20184;-49
2022/12/02 05:14:24;;;;;;;46.30;22.70;;;3.20;99.90;;;;;;5034771;28;20181;-49
2022/12/02 05:16:50;;;;;;;55.97;26.27;;;3.30;99.90;;;;;;5034454;28;20544;-51
2022/12/02 05:19:16;;;;;;;49.23;22.77;;;3.20;99.90;;;;;;5034632;28;20287;-49
2022/12/02 05:21:41;;;;;;;55.23;27.37;;;3.20;99.90;;;;;;5034304;28;20173;-48
2022/12/02 05:24:07;;;;;;;57.27;27.23;;;3.20;99.90;;;;;;5035124;28;20173;-50
2022/12/02 05:29:54;;;;;;;51.80;25.77;;;3.20;99.90;;;;;;5034144;28;20208;-49
2022/12/02 05:32:20;;;;;;;53.73;25.73;;;3.20;99.90;;;;;;5017010;28;20178;-50
2022/12/02 05:34:45;;;;;;;59.13;25.80;;;3.20;99.90;;;;;;5034193;28;20176;-50
2022/12/02 05:37:11;;;;;;;52.57;24.33;;;3.30;99.90;;;;;;5034149;28;20180;-50
2022/12/02 05:39:37;;;;;;;56.37;26.53;;;3.30;99.90;;;;;;5016482;28;20211;-50
2022/12/02 05:42:07;;;;;;;65.10;31.77;;;3.30;99.90;;;;;;5034150;28;20183;-50
2022/12/02 05:44:33;;;;;;;59.53;28.07;;;3.30;99.90;;;;;;5034007;28;20185;-49
2022/12/02 05:47:08;;;;;;;62.73;29.60;;;3.20;99.90;;;;;;5034473;28;20546;-49
2022/12/02 05:49:34;;;;;;;59.77;27.83;;;3.30;99.90;;;;;;5034013;28;20283;-50
2022/12/02 05:52:06;;;;;;;67.80;29.10;;;3.30;99.90;;;;;;5016239;28;20223;-50
2022/12/02 05:54:31;;;;;;;63.37;28.03;;;3.20;99.90;;;;;;5034132;28;20673;-51
2022/12/02 05:57:01;;;;;;;59.83;27.73;;;3.20;99.90;;;;;;5016051;28;20263;-49
2022/12/02 05:59:28;;;;;;;61.43;28.70;;;3.20;99.90;;;;;;5033880;28;20288;-50
2022/12/02 06:01:56;;;;;;;59.37;26.27;;;3.20;99.90;;;;;;5034583;28;20188;-48
2022/12/02 06:04:29;;;;;;;59.73;26.37;;;3.20;99.90;;;;;;5033929;28;20556;-48
2022/12/02 06:06:58;;;;;;;54.23;25.23;;;3.20;99.90;;;;;;5034321;28;20191;-50
2022/12/02 06:09:32;;;;;;;58.47;25.47;;;3.20;99.90;;;;;;5033799;28;20284;-50
2022/12/02 06:11:59;;;;;;;58.30;25.73;;;3.20;99.90;;;;;;5033977;28;20172;-49
2022/12/02 06:14:30;;;;;;;57.93;25.40;;;3.20;99.90;;;;;;5033651;28;20546;-50
2022/12/02 06:17:15;;;;;;;63.00;27.57;;;3.20;99.90;;;;;;5033920;28;20252;-49
2022/12/02 06:19:56;;;;;;;64.67;25.20;;;3.20;99.90;;;;;;5016039;28;20243;-49
2022/12/02 06:22:28;;;;;;;54.63;25.93;;;3.20;99.90;;;;;;5033694;28;20287;-49
2022/12/02 06:24:56;;;;;;;52.70;24.07;;;3.20;99.90;;;;;;5016217;28;20165;-49
2022/12/02 06:27:21;;;;;;;58.63;26.53;;;3.20;99.90;;;;;;5034266;28;20180;-49
2022/12/02 06:29:56;;;;;;;52.77;23.67;;;3.20;99.90;;;;;;5015657;28;20205;-49
2022/12/02 06:32:30;;;;;;;53.53;24.47;;;3.20;99.90;;;;;;5008278;28;20558;-49
2022/12/02 06:34:55;;;;;;;54.33;24.83;;;3.20;99.90;;;;;;5033497;28;20193;-49
2022/12/02 06:37:29;;;;;;;64.20;27.43;;;3.20;99.90;;;;;;5033382;28;20524;-50
2022/12/02 06:39:57;;;;;;;55.37;24.90;;;3.20;99.90;;;;;;5033582;28;20717;-49
2022/12/02 06:42:31;;;;;;;61.10;24.17;;;3.20;99.90;;;;;;5033246;28;20636;-49
2022/12/02 06:45:12;;;;;;;53.27;24.43;;;3.20;99.90;;;;;;5033249;28;20172;-48
2022/12/02 06:47:41;;;;;;;55.67;24.83;;;3.20;99.90;;;;;;5033841;28;20168;-49
2022/12/02 06:50:06;;;;;;;54.70;24.77;;;3.30;99.90;;;;;;5033884;28;20197;-50
2022/12/02 06:52:41;;;;;;;53.57;24.83;;;3.20;99.90;;;;;;5033472;28;20176;-50
2022/12/02 06:55:19;;;;;;;53.93;25.03;;;3.20;99.90;;;;;;5033389;28;20624;-50
2022/12/02 06:57:44;;;;;;;54.90;24.93;;;3.20;99.90;;;;;;5033395;28;20235;-49
2022/12/02 07:00:11;;;;;;;59.50;25.83;;;3.20;99.90;;;;;;5033095;28;20213;-50
2022/12/02 07:02:39;;;;;;;51.90;22.93;;;3.20;99.90;;;;;;5033222;28;20197;-51
2022/12/02 07:05:04;;;;;;;57.57;24.23;;;3.30;99.90;;;;;;5033454;28;20559;-50
2022/12/02 07:07:31;;;;;;;52.23;25.03;;;3.20;99.90;;;;;;5033031;28;20180;-50
2022/12/02 07:10:03;;;;;;;55.47;24.37;;;3.30;99.90;;;;;;5033266;28;20204;-49
2022/12/02 07:12:41;;;;;;;54.63;21.80;;;3.20;99.90;;;;;;5033179;28;20188;-50
2022/12/02 07:15:24;;;;;;;57.93;25.43;;;3.20;99.90;;;;;;5035120;28;20173;-50
2022/12/02 07:17:50;;;;;;;52.00;22.73;;;3.20;99.90;;;;;;5036770;28;20661;-50
2022/12/02 07:20:27;;;;;;;51.27;23.43;;;3.30;99.90;;;;;;5018958;28;20239;-49
2022/12/02 07:22:58;;;;;;;57.73;24.23;;;3.30;99.90;;;;;;5036820;28;20259;-50
2022/12/02 07:25:33;;;;;;;58.03;23.97;;;3.20;99.90;;;;;;5037409;28;20253;-49
2022/12/02 07:27:59;;;;;;;51.83;22.03;;;3.30;99.90;;;;;;5036885;28;20173;-50
2022/12/02 07:30:28;;;;;;;49.73;22.63;;;3.30;99.90;;;;;;5036995;28;20192;-49
2022/12/02 07:32:54;;;;;;;59.43;23.53;;;3.30;99.90;;;;;;5036802;28;20176;-48
2022/12/02 07:35:19;;;;;;;51.93;23.40;;;3.30;99.90;;;;;;5036314;28;20173;-49
2022/12/02 07:37:45;;;;;;;55.83;22.90;;;3.30;99.90;;;;;;5036573;28;20185;-50
2022/12/02 07:40:15;;;;;;;50.17;24.43;;;3.30;99.90;;;;;;5036233;28;20327;-48
2022/12/02 07:42:42;;;;;;;50.27;21.83;;;3.30;99.90;;;;;;5036761;28;20173;-50
2022/12/02 07:45:15;;;;;;;56.63;24.13;;;3.30;99.90;;;;;;5036765;28;20530;-49
2022/12/02 07:47:41;;;;;;;62.80;26.40;;;3.30;99.90;;;;;;5036904;28;20181;-50
2022/12/02 07:50:07;;;;;;;58.17;22.83;;;3.30;99.90;;;;;;5035939;28;20196;-50
2022/12/02 07:52:33;;;;;;;53.67;23.13;;;3.30;99.90;;;;;;5036169;28;20181;-49
2022/12/02 07:55:00;;;;;;;52.67;23.30;;;3.30;99.90;;;;;;5036058;28;20188;-49
2022/12/02 07:57:26;;;;;;;59.60;23.87;;;3.30;99.90;;;;;;5036161;28;20188;-50
2022/12/02 07:59:52;;;;;;;58.57;23.50;;;3.30;99.90;;;;;;5036300;28;20297;-50
2022/12/02 08:02:18;;;;;;;50.93;20.87;;;3.30;99.90;;;;;;5035985;28;20606;-49
2022/12/02 08:04:43;;;;;;;55.33;23.43;;;3.30;99.90;;;;;;5036312;28;20176;-50
2022/12/02 08:07:09;;;;;;;52.43;22.60;;;3.30;99.90;;;;;;5036238;28;20177;-49
2022/12/02 08:09:34;;;;;;;52.07;22.83;;;3.30;99.90;;;;;;5035810;28;20283;-49
2022/12/02 08:12:00;;;;;;;52.70;24.40;;;3.40;99.90;;;;;;5036297;28;20181;-49
2022/12/02 08:14:25;;;;;;;51.60;23.33;;;3.40;99.90;;;;;;5035773;28;20181;-50
2022/12/02 08:16:51;;;;;;;53.97;22.67;;;3.40;99.90;;;;;;5035723;28;20185;-49
2022/12/02 08:19:17;;;;;;;51.37;23.03;;;3.30;99.90;;;;;;5035586;28;20703;-48
2022/12/02 08:21:42;;;;;;;57.90;23.27;;;3.40;99.90;;;;;;5036445;28;20212;-48
2022/12/02 08:24:08;;;;;;;53.47;22.67;;;3.30;99.90;;;;;;5036232;28;20653;-49
2022/12/02 08:26:34;;;;;;;46.83;20.67;;;3.40;99.90;;;;;;5035506;28;20859;-48
2022/12/02 08:28:59;;;;;;;51.07;24.40;;;3.40;99.90;;;;;;5035452;28;20208;-50
2022/12/02 08:31:26;;;;;;;57.50;24.43;;;3.40;99.90;;;;;;5035528;28;20173;-49
2022/12/02 08:33:51;;;;;;;52.47;22.60;;;3.40;99.90;;;;;;5035632;28;20173;-48
2022/12/02 08:36:18;;;;;;;53.73;22.00;;;3.40;99.90;;;;;;5035383;28;20180;-48
2022/12/02 08:38:44;;;;;;;55.57;23.07;;;3.40;99.90;;;;;;5035388;28;20279;-49
2022/12/02 08:41:10;;;;;;;51.87;19.90;;;3.40;99.90;;;;;;5035335;28;20304;-50
2022/12/02 08:43:36;;;;;;;49.53;21.93;;;3.30;99.90;;;;;;5035329;28;20169;-50
2022/12/02 08:46:01;;;;;;;42.60;20.13;;;3.40;99.90;;;;;;5035587;28;20203;-49
2022/12/02 08:48:27;;;;;;;59.17;22.27;;;3.40;99.90;;;;;;5035040;28;20212;-49
2022/12/02 08:50:53;;;;;;;57.23;22.10;;;3.30;99.90;;;;;;5035211;28;20185;-49
2022/12/02 08:53:20;;;;;;;51.03;22.93;;;3.30;99.90;;;;;;5035359;28;20554;-49
2022/12/02 08:55:46;;;;;;;53.90;21.27;;;3.30;99.90;;;;;;5034826;28;20271;-48
2022/12/02 08:58:11;;;;;;;51.90;22.93;;;3.40;99.90;;;;;;5034913;28;20347;-49
2022/12/02 09:00:39;;;;;;;52.07;22.90;;;3.40;99.90;;;;;;5034893;28;20205;-50
2022/12/02 09:03:08;;;;;;;56.40;24.00;;;3.40;99.90;;;;;;5034683;28;20338;-49
2022/12/02 09:05:35;;;;;;;59.17;22.50;;;3.30;99.90;;;;;;5034766;28;20185;-49
2022/12/02 09:08:01;;;;;;;60.57;25.73;;;3.40;99.90;;;;;;5034715;28;20185;-50
2022/12/02 09:10:27;;;;;;;61.30;23.17;;;3.30;99.90;;;;;;5035100;28;20264;-49
2022/12/02 09:12:53;;;;;;;59.70;23.67;;;3.30;99.90;;;;;;5034641;28;20189;-49
2022/12/02 09:15:19;;;;;;;66.00;25.03;;;3.30;99.90;;;;;;5035204;28;20192;-49
2022/12/02 09:17:45;;;;;;;68.90;22.37;;;3.30;99.90;;;;;;5034753;28;20216;-50
2022/12/02 09:20:12;;;;;;;65.13;26.63;;;3.30;99.90;;;;;;5034543;28;20232;-50
2022/12/02 09:22:37;;;;;;;68.43;25.90;;;3.30;99.90;;;;;;5034596;28;20227;-48
2022/12/02 09:25:03;;;;;;;70.63;27.63;;;3.30;99.90;;;;;;5034537;28;20184;-48
2022/12/02 09:27:29;;;;;;;73.40;26.27;;;3.30;99.90;;;;;;5034221;28;20268;-50
2022/12/02 09:29:55;;;;;;;63.40;24.27;;;3.30;99.90;;;;;;5034373;28;20744;-50
2022/12/02 09:32:21;;;;;;;80.93;28.20;;;3.30;99.90;;;;;;5034154;28;20213;-50
2022/12/02 09:34:46;;;;;;;81.67;28.03;;;3.30;99.90;;;;;;5034110;28;20193;-50
2022/12/02 09:37:12;;;;;;;86.30;30.97;;;3.30;99.90;;;;;;5033369;28;20181;-50
2022/12/02 09:39:38;;;;;;;80.37;30.57;;;3.30;99.90;;;;;;5034166;28;20236;-50
2022/12/02 09:42:04;;;;;;;80.40;29.23;;;3.30;99.90;;;;;;5016227;28;20692;-49
2022/12/02 09:44:30;;;;;;;86.27;27.67;;;3.30;99.90;;;;;;5033900;28;20181;-49
2022/12/02 09:46:56;;;;;;;76.97;27.87;;;3.20;99.90;;;;;;5034336;28;20572;-49
2022/12/02 09:49:22;;;;;;;82.43;31.27;;;3.20;99.90;;;;;;5016181;28;20201;-50
2022/12/02 09:51:48;;;;;;;84.10;27.60;;;3.30;99.90;;;;;;5034206;28;20199;-49
2022/12/02 09:54:15;;;;;;;83.93;31.10;;;3.20;99.90;;;;;;5016080;28;20189;-49
2022/12/02 09:56:41;;;;;;;87.80;31.30;;;3.20;99.90;;;;;;5033772;28;20255;-50
2022/12/02 09:59:14;;;;;;;80.23;28.07;;;3.30;99.90;;;;;;5033551;28;20290;-50
2022/12/02 10:01:46;;;;;;;85.17;32.37;;;3.30;99.90;;;;;;5033870;28;20621;-49
2022/12/02 10:04:15;;;;;;;75.90;28.67;;;3.30;99.90;;;;;;5033680;28;20188;-50
2022/12/02 10:06:42;;;;;;;71.63;27.33;;;3.30;99.90;;;;;;5033812;28;20177;-50
2022/12/02 10:09:16;;;;;;;70.43;27.97;;;3.30;99.90;;;;;;5015993;28;20570;-51
2022/12/02 10:11:42;;;;;;;72.43;28.80;;;3.30;99.90;;;;;;5034610;28;20177;-50
2022/12/02 10:14:11;;;;;;;82.70;30.63;;;3.30;99.90;;;;;;5033805;28;20239;-49
2022/12/02 10:16:37;;;;;;;80.50;31.20;;;3.30;99.90;;;;;;5033718;28;20235;-50
2022/12/02 10:19:05;;;;;;;81.93;29.37;;;3.40;99.90;;;;;;5015877;28;20622;-49
2022/12/02 10:21:31;;;;;;;80.87;31.53;;;3.40;99.90;;;;;;5033835;28;20173;-50
2022/12/02 10:24:04;;;;;;;74.67;27.17;;;3.30;99.90;;;;;;5015741;28;20215;-49
2022/12/02 10:26:43;;;;;;;76.47;29.87;;;3.40;99.90;;;;;;5033674;28;20232;-50
2022/12/02 10:29:25;;;;;;;85.23;31.37;;;3.40;99.90;;;;;;5033390;28;20207;-50
2022/12/02 10:31:58;;;;;;;70.87;30.00;;;3.40;99.90;;;;;;5033264;28;20176;-49
2022/12/02 10:34:25;;;;;;;74.30;30.07;;;3.40;99.90;;;;;;5033449;28;20166;-50
2022/12/02 10:36:51;;;;;;;77.23;30.70;;;3.40;99.90;;;;;;5033386;28;20180;-49
2022/12/02 10:39:19;;;;;;;70.67;28.27;;;3.40;99.90;;;;;;5033127;28;20515;-50
2022/12/02 10:41:45;;;;;;;72.83;29.07;;;3.40;99.90;;;;;;5033394;28;20239;-50
2022/12/02 10:44:20;;;;;;;77.17;31.63;;;3.40;99.90;;;;;;5033202;28;20332;-49
2022/12/02 10:46:46;;;;;;;62.10;26.17;;;3.40;99.90;;;;;;5033071;28;20191;-49
2022/12/02 10:49:15;;;;;;;74.33;31.23;;;3.40;99.90;;;;;;5035320;28;20209;-49
2022/12/02 10:51:41;;;;;;;70.63;27.00;;;3.40;99.90;;;;;;5037524;28;20597;-50
2022/12/02 10:54:18;;;;;;;59.83;25.53;;;3.50;99.90;;;;;;5037241;28;20189;-49
2022/12/02 10:56:43;;;;;;;65.03;27.93;;;3.50;99.90;;;;;;5037548;28;20173;-49
2022/12/02 10:59:14;;;;;;;62.30;25.57;;;3.40;99.90;;;;;;5036895;28;20334;-50
2022/12/02 11:01:40;;;;;;;73.17;28.83;;;3.50;99.90;;;;;;5037410;28;20176;-49
2022/12/02 11:04:12;;;;;;;65.50;28.07;;;3.40;99.90;;;;;;5036953;28;20279;-49
2022/12/02 11:06:38;;;;;;;66.00;28.70;;;3.50;99.90;;;;;;5019281;28;20617;-49
2022/12/02 11:09:03;;;;;;;63.20;27.37;;;3.40;99.90;;;;;;5037109;28;20207;-48
2022/12/02 11:11:29;;;;;;;62.13;27.43;;;3.50;99.90;;;;;;5037242;28;20177;-49
2022/12/02 11:14:12;;;;;;;61.37;27.13;;;3.50;99.90;;;;;;5036941;28;20208;-50
2022/12/02 11:16:43;;;;;;;63.40;27.33;;;3.50;99.90;;;;;;5036903;28;20248;-51
2022/12/02 11:19:12;;;;;;;58.40;26.83;;;3.50;99.90;;;;;;5036652;28;20259;-49
2022/12/02 11:21:40;;;;;;;56.67;26.00;;;3.50;99.90;;;;;;5036834;28;20249;-50
2022/12/02 11:24:26;;;;;;;56.03;26.03;;;3.50;99.90;;;;;;5036694;28;20181;-48
2022/12/02 11:27:03;;;;;;;58.43;26.10;;;3.50;99.90;;;;;;5037122;28;20173;-49
2022/12/02 11:30:27;;;;;;;59.00;24.27;;;3.50;99.90;;;;;;5036617;28;20208;-50
2022/12/02 11:32:53;;;;;;;51.23;23.93;;;3.50;99.90;;;;;;4956308;29;20199;-49
2022/12/02 11:35:57;;;;;;;57.63;25.73;;;3.50;99.90;;;;;;4956206;29;20652;-49
2022/12/02 11:38:26;;;;;;;54.67;25.87;;;3.50;99.90;;;;;;5025773;28;20570;-49
2022/12/02 11:40:52;;;;;;;49.43;23.20;;;3.50;99.90;;;;;;5036303;28;20207;-51
2022/12/02 11:43:45;;;;;;;51.60;21.83;;;3.50;99.90;;;;;;5036316;28;20546;-49
2022/12/02 11:46:14;;;;;;;56.70;24.43;;;3.50;99.90;;;;;;5036315;28;20177;-51
2022/12/02 11:48:48;;;;;;;51.97;24.93;;;3.50;99.90;;;;;;5018875;28;20193;-48
2022/12/02 11:51:32;;;;;;;50.70;25.40;;;3.50;99.90;;;;;;5036051;28;20434;-49
2022/12/02 11:53:58;;;;;;;55.63;23.87;;;3.50;99.90;;;;;;5036588;28;20610;-49
2022/12/02 11:56:30;;;;;;;43.07;23.20;;;3.50;99.90;;;;;;5036008;28;20177;-50
2022/12/02 11:58:56;;;;;;;46.50;23.60;;;3.50;99.90;;;;;;5018109;28;20240;-49
2022/12/02 12:01:22;;;;;;;52.13;23.93;;;3.50;99.90;;;;;;5035719;28;20461;-50
2022/12/02 12:03:50;;;;;;;45.60;22.00;;;3.50;99.90;;;;;;5035722;28;20208;-50
2022/12/02 12:06:18;;;;;;;51.43;24.27;;;3.50;99.90;;;;;;5035910;28;20181;-49
2022/12/02 12:08:49;;;;;;;54.97;24.70;;;3.50;99.90;;;;;;5036020;28;20201;-49
2022/12/02 12:11:33;;;;;;;47.97;26.30;;;3.50;99.90;;;;;;5036088;28;20169;-50
2022/12/02 12:14:12;;;;;;;49.47;23.47;;;3.50;99.90;;;;;;5035698;28;20240;-50
2022/12/02 12:16:45;;;;;;;49.50;24.47;;;3.50;99.90;;;;;;5035946;28;20605;-49
2022/12/02 12:19:10;;;;;;;47.27;23.97;;;3.50;99.90;;;;;;5035959;28;20341;-49
2022/12/02 12:21:44;;;;;;;46.57;24.87;;;3.50;99.90;;;;;;5035598;28;20173;-48
2022/12/02 12:24:19;;;;;;;47.63;22.87;;;3.50;99.90;;;;;;5035681;28;20212;-50
2022/12/02 12:26:53;;;;;;;49.13;23.70;;;3.60;99.90;;;;;;5035615;28;20222;-48
2022/12/02 12:29:20;;;;;;;46.10;25.17;;;3.60;99.90;;;;;;5035644;28;20213;-50
2022/12/02 12:31:46;;;;;;;42.37;23.83;;;3.60;99.90;;;;;;5035628;28;20177;-49
2022/12/02 12:34:12;;;;;;;46.87;25.80;;;3.60;99.90;;;;;;5035512;28;20188;-50
2022/12/02 12:36:38;;;;;;;46.30;22.20;;;3.60;99.90;;;;;;5035354;28;20185;-50
2022/12/02 12:39:05;;;;;;;45.00;26.17;;;3.60;99.90;;;;;;5035474;28;20327;-50
2022/12/02 12:41:31;;;;;;;42.50;24.70;;;3.60;99.90;;;;;;5035531;28;20212;-50
2022/12/02 12:43:57;;;;;;;45.83;26.63;;;3.60;99.90;;;;;;5035156;28;20684;-49
2022/12/02 12:46:22;;;;;;;43.30;23.00;;;3.60;99.90;;;;;;5035210;28;20255;-49